DEHRS EDWG-EDXH
Flight info
| Callsign | DEHRS |
|---|---|
| Flight time | 0h 12m |
| Altitude | 4000 |
| Route | DHE |
| Aircraft | C172/L-SFG/C |
Departure
| Time | 2026-05-05 22:31 |
|---|---|
| Airport | Wangerooge Airport (EDWG) |
Arrival
| Time | 2026-05-05 22:43 |
|---|---|
| Airport | Helgoland-Düne Airport (EDXH) |
| Time | Latitude | Longitude | Altitude | Speed | Heading |
|---|---|---|---|---|---|
| 2026-05-05 22:25 | 53.78790 | 7.90951 | 8 ft | 0 kts | 125° |
| 2026-05-05 22:28 | 53.78765 | 7.90935 | 8 ft | 8 kts | 218° |
| 2026-05-05 22:28 | 53.78715 | 7.90943 | 8 ft | 9 kts | 159° |
| 2026-05-05 22:28 | 53.78632 | 7.90996 | 8 ft | 20 kts | 159° |
| 2026-05-05 22:28 | 53.78480 | 7.91090 | 8 ft | 26 kts | 161° |
| 2026-05-05 22:29 | 53.78355 | 7.91206 | 11 ft | 13 kts | 113° |
| 2026-05-05 22:29 | 53.78329 | 7.91323 | 11 ft | 10 kts | 154° |
| 2026-05-05 22:29 | 53.78286 | 7.91325 | 12 ft | 4 kts | 142° |
| 2026-05-05 22:29 | 53.78282 | 7.91348 | 11 ft | 0 kts | 90° |
| 2026-05-05 22:30 | 53.78269 | 7.91622 | 6 ft | 52 kts | 94° |
| 2026-05-05 22:30 | 53.78275 | 7.92404 | 70 ft | 75 kts | 64° |
| 2026-05-05 22:30 | 53.78741 | 7.92441 | 239 ft | 90 kts | 327° |
| 2026-05-05 22:30 | 53.79360 | 7.92147 | 282 ft | 98 kts | 345° |
| 2026-05-05 22:31 | 53.79999 | 7.91690 | 395 ft | 100 kts | 0° |
| 2026-05-05 22:31 | 53.80698 | 7.91633 | 525 ft | 101 kts | 359° |
| 2026-05-05 22:31 | 53.81394 | 7.91582 | 668 ft | 100 kts | 4° |
| 2026-05-05 22:31 | 53.82104 | 7.91555 | 794 ft | 103 kts | 4° |
| 2026-05-05 22:32 | 53.82813 | 7.91535 | 935 ft | 102 kts | 4° |
| 2026-05-05 22:32 | 53.83543 | 7.91523 | 966 ft | 108 kts | 4° |
| 2026-05-05 22:32 | 53.84297 | 7.91510 | 967 ft | 107 kts | 3° |
| 2026-05-05 22:32 | 53.85049 | 7.91501 | 963 ft | 109 kts | 3° |
| 2026-05-05 22:33 | 53.85819 | 7.91492 | 966 ft | 113 kts | 3° |
| 2026-05-05 22:33 | 53.86611 | 7.91480 | 972 ft | 115 kts | 3° |
| 2026-05-05 22:33 | 53.87414 | 7.91472 | 973 ft | 115 kts | 3° |
| 2026-05-05 22:33 | 53.88203 | 7.91459 | 973 ft | 112 kts | 4° |
| 2026-05-05 22:34 | 53.88983 | 7.91449 | 977 ft | 113 kts | 3° |
| 2026-05-05 22:34 | 53.89763 | 7.91440 | 976 ft | 112 kts | 4° |
| 2026-05-05 22:34 | 53.90553 | 7.91431 | 978 ft | 116 kts | 3° |
| 2026-05-05 22:34 | 53.91360 | 7.91421 | 983 ft | 115 kts | 3° |
| 2026-05-05 22:35 | 53.92160 | 7.91411 | 982 ft | 115 kts | 2° |
| 2026-05-05 22:35 | 53.92943 | 7.91400 | 979 ft | 112 kts | 4° |
| 2026-05-05 22:35 | 53.93725 | 7.91391 | 976 ft | 113 kts | 4° |
| 2026-05-05 22:35 | 53.94515 | 7.91381 | 978 ft | 113 kts | 5° |
| 2026-05-05 22:36 | 53.95309 | 7.91371 | 983 ft | 115 kts | 4° |
| 2026-05-05 22:36 | 53.96112 | 7.91361 | 980 ft | 115 kts | 2° |
| 2026-05-05 22:36 | 53.96908 | 7.91351 | 982 ft | 114 kts | 4° |
| 2026-05-05 22:36 | 53.97699 | 7.91340 | 978 ft | 113 kts | 4° |
| 2026-05-05 22:37 | 53.98481 | 7.91330 | 982 ft | 113 kts | 5° |
| 2026-05-05 22:37 | 53.99270 | 7.91321 | 981 ft | 114 kts | 2° |
| 2026-05-05 22:37 | 54.00062 | 7.91310 | 980 ft | 115 kts | 2° |
| 2026-05-05 22:37 | 54.00876 | 7.91301 | 977 ft | 119 kts | 2° |
| 2026-05-05 22:38 | 54.01709 | 7.91290 | 979 ft | 120 kts | 1° |
| 2026-05-05 22:38 | 54.02539 | 7.91278 | 977 ft | 118 kts | 2° |
| 2026-05-05 22:38 | 54.03356 | 7.91266 | 977 ft | 118 kts | 3° |
| 2026-05-05 22:38 | 54.04178 | 7.91257 | 981 ft | 119 kts | 2° |
| 2026-05-05 22:39 | 54.05008 | 7.91247 | 982 ft | 119 kts | 1° |
| 2026-05-05 22:39 | 54.05835 | 7.91235 | 979 ft | 119 kts | 1° |
| 2026-05-05 22:39 | 54.06661 | 7.91224 | 979 ft | 119 kts | 2° |
| 2026-05-05 22:39 | 54.07476 | 7.91214 | 976 ft | 118 kts | 3° |
| 2026-05-05 22:40 | 54.08293 | 7.91203 | 975 ft | 117 kts | 2° |
| 2026-05-05 22:40 | 54.09104 | 7.91193 | 973 ft | 117 kts | 2° |
| 2026-05-05 22:40 | 54.09926 | 7.91182 | 977 ft | 119 kts | 2° |
| 2026-05-05 22:40 | 54.10760 | 7.91172 | 978 ft | 120 kts | 2° |
| 2026-05-05 22:41 | 54.11593 | 7.91161 | 976 ft | 120 kts | 2° |
| 2026-05-05 22:41 | 54.12420 | 7.91150 | 978 ft | 118 kts | 1° |
| 2026-05-05 22:41 | 54.13246 | 7.91139 | 978 ft | 119 kts | 2° |
| 2026-05-05 22:41 | 54.14038 | 7.91443 | 971 ft | 118 kts | 24° |
| 2026-05-05 22:42 | 54.14773 | 7.91974 | 946 ft | 113 kts | 21° |
| 2026-05-05 22:42 | 54.15544 | 7.92386 | 672 ft | 118 kts | 12° |
| 2026-05-05 22:42 | 54.16329 | 7.92554 | 497 ft | 109 kts | 10° |
| 2026-05-05 22:42 | 54.17047 | 7.92617 | 388 ft | 89 kts | 358° |
| 2026-05-05 22:43 | 54.17541 | 7.92440 | 269 ft | 65 kts | 345° |
| 2026-05-05 22:43 | 54.17946 | 7.92133 | 96 ft | 62 kts | 330° |
| 2026-05-05 22:43 | 54.18280 | 7.91746 | 28 ft | 51 kts | 324° |
| 2026-05-05 22:43 | 54.18504 | 7.91446 | 7 ft | 31 kts | 326° |
| 2026-05-05 22:44 | 54.18607 | 7.91406 | 4 ft | 11 kts | 16° |
| 2026-05-05 22:44 | 54.18648 | 7.91448 | 5 ft | 5 kts | 61° |
| 2026-05-05 22:44 | 54.18667 | 7.91480 | 5 ft | 3 kts | 46° |
| 2026-05-05 22:44 | 54.18668 | 7.91496 | 5 ft | 0 kts | 111° |